sensor_id;sensor_type;location;lat;lon;timestamp;P1;durP1;ratioP1;P2;durP2;ratioP2
11076;SDS011;5591;42.626;23.380;2022-12-07T00:01:20;43.00;;;29.23;;
11076;SDS011;5591;42.626;23.380;2022-12-07T00:03:48;43.53;;;27.03;;
11076;SDS011;5591;42.626;23.380;2022-12-07T00:06:20;48.07;;;29.40;;
11076;SDS011;5591;42.626;23.380;2022-12-07T00:08:48;41.40;;;28.50;;
11076;SDS011;5591;42.626;23.380;2022-12-07T00:11:15;42.57;;;27.03;;
11076;SDS011;5591;42.626;23.380;2022-12-07T00:13:44;37.27;;;25.03;;
11076;SDS011;5591;42.626;23.380;2022-12-07T00:16:12;36.33;;;26.03;;
11076;SDS011;5591;42.626;23.380;2022-12-07T00:18:41;42.57;;;25.63;;
11076;SDS011;5591;42.626;23.380;2022-12-07T00:21:11;39.43;;;24.23;;
11076;SDS011;5591;42.626;23.380;2022-12-07T00:23:40;36.63;;;23.77;;
11076;SDS011;5591;42.626;23.380;2022-12-07T00:26:10;38.30;;;21.93;;
11076;SDS011;5591;42.626;23.380;2022-12-07T00:28:38;33.83;;;21.50;;
11076;SDS011;5591;42.626;23.380;2022-12-07T00:31:06;30.40;;;20.60;;
11076;SDS011;5591;42.626;23.380;2022-12-07T00:33:34;31.90;;;21.27;;
11076;SDS011;5591;42.626;23.380;2022-12-07T00:36:02;32.17;;;20.77;;
11076;SDS011;5591;42.626;23.380;2022-12-07T00:38:31;37.80;;;20.73;;
11076;SDS011;5591;42.626;23.380;2022-12-07T00:40:59;28.83;;;20.17;;
11076;SDS011;5591;42.626;23.380;2022-12-07T00:43:28;31.27;;;19.77;;
11076;SDS011;5591;42.626;23.380;2022-12-07T00:45:55;27.20;;;18.57;;
11076;SDS011;5591;42.626;23.380;2022-12-07T00:48:23;30.70;;;20.10;;
11076;SDS011;5591;42.626;23.380;2022-12-07T00:50:52;32.00;;;19.63;;
11076;SDS011;5591;42.626;23.380;2022-12-07T00:53:18;29.50;;;18.97;;
11076;SDS011;5591;42.626;23.380;2022-12-07T00:55:45;31.30;;;18.60;;
11076;SDS011;5591;42.626;23.380;2022-12-07T00:58:13;29.00;;;19.67;;
11076;SDS011;5591;42.626;23.380;2022-12-07T01:00:42;29.43;;;18.30;;
11076;SDS011;5591;42.626;23.380;2022-12-07T01:03:10;28.67;;;19.33;;
11076;SDS011;5591;42.626;23.380;2022-12-07T01:05:39;33.63;;;19.83;;
11076;SDS011;5591;42.626;23.380;2022-12-07T01:08:06;28.97;;;20.40;;
11076;SDS011;5591;42.626;23.380;2022-12-07T01:10:33;32.97;;;20.83;;
11076;SDS011;5591;42.626;23.380;2022-12-07T01:13:00;29.57;;;19.93;;
11076;SDS011;5591;42.626;23.380;2022-12-07T01:15:26;31.47;;;20.97;;
11076;SDS011;5591;42.626;23.380;2022-12-07T01:17:55;34.27;;;21.57;;
11076;SDS011;5591;42.626;23.380;2022-12-07T01:20:21;33.50;;;22.53;;
11076;SDS011;5591;42.626;23.380;2022-12-07T01:22:48;37.03;;;23.40;;
11076;SDS011;5591;42.626;23.380;2022-12-07T01:25:15;36.83;;;24.17;;
11076;SDS011;5591;42.626;23.380;2022-12-07T01:27:42;39.03;;;23.83;;
11076;SDS011;5591;42.626;23.380;2022-12-07T01:30:09;39.60;;;24.93;;
11076;SDS011;5591;42.626;23.380;2022-12-07T01:32:37;31.23;;;20.20;;
11076;SDS011;5591;42.626;23.380;2022-12-07T01:35:06;38.37;;;24.80;;
11076;SDS011;5591;42.626;23.380;2022-12-07T01:37:34;35.53;;;24.27;;
11076;SDS011;5591;42.626;23.380;2022-12-07T01:40:02;35.73;;;23.30;;
11076;SDS011;5591;42.626;23.380;2022-12-07T01:42:29;34.37;;;23.20;;
11076;SDS011;5591;42.626;23.380;2022-12-07T01:47:56;38.37;;;22.20;;
11076;SDS011;5591;42.626;23.380;2022-12-07T01:50:27;41.57;;;25.17;;
11076;SDS011;5591;42.626;23.380;2022-12-07T01:52:56;39.87;;;26.87;;
11076;SDS011;5591;42.626;23.380;2022-12-07T01:55:27;40.33;;;26.63;;
11076;SDS011;5591;42.626;23.380;2022-12-07T01:57:55;41.57;;;24.93;;
11076;SDS011;5591;42.626;23.380;2022-12-07T02:00:23;38.73;;;25.40;;
11076;SDS011;5591;42.626;23.380;2022-12-07T02:02:51;40.67;;;25.90;;
11076;SDS011;5591;42.626;23.380;2022-12-07T02:05:22;42.33;;;26.87;;
11076;SDS011;5591;42.626;23.380;2022-12-07T02:07:52;46.37;;;28.03;;
11076;SDS011;5591;42.626;23.380;2022-12-07T02:10:21;47.83;;;27.97;;
11076;SDS011;5591;42.626;23.380;2022-12-07T02:12:52;44.30;;;28.30;;
11076;SDS011;5591;42.626;23.380;2022-12-07T02:15:22;46.13;;;27.27;;
11076;SDS011;5591;42.626;23.380;2022-12-07T02:17:54;48.10;;;27.50;;
11076;SDS011;5591;42.626;23.380;2022-12-07T02:20:28;45.70;;;28.17;;
11076;SDS011;5591;42.626;23.380;2022-12-07T02:28:59;42.17;;;27.13;;
11076;SDS011;5591;42.626;23.380;2022-12-07T02:31:37;46.80;;;27.60;;
11076;SDS011;5591;42.626;23.380;2022-12-07T02:34:11;42.27;;;26.93;;
11076;SDS011;5591;42.626;23.380;2022-12-07T02:36:46;44.07;;;27.93;;
11076;SDS011;5591;42.626;23.380;2022-12-07T02:39:19;44.83;;;27.37;;
11076;SDS011;5591;42.626;23.380;2022-12-07T02:41:51;44.97;;;28.23;;
11076;SDS011;5591;42.626;23.380;2022-12-07T02:44:24;45.13;;;27.23;;
11076;SDS011;5591;42.626;23.380;2022-12-07T02:46:54;43.00;;;26.70;;
11076;SDS011;5591;42.626;23.380;2022-12-07T02:49:24;41.63;;;27.13;;
11076;SDS011;5591;42.626;23.380;2022-12-07T02:51:53;42.37;;;27.70;;
11076;SDS011;5591;42.626;23.380;2022-12-07T02:54:20;42.20;;;27.07;;
11076;SDS011;5591;42.626;23.380;2022-12-07T02:56:48;44.40;;;28.03;;
11076;SDS011;5591;42.626;23.380;2022-12-07T02:59:22;40.33;;;26.10;;
11076;SDS011;5591;42.626;23.380;2022-12-07T03:02:00;41.00;;;24.90;;
11076;SDS011;5591;42.626;23.380;2022-12-07T03:04:40;45.80;;;26.13;;
11076;SDS011;5591;42.626;23.380;2022-12-07T03:07:18;37.20;;;24.73;;
11076;SDS011;5591;42.626;23.380;2022-12-07T03:09:58;39.20;;;25.83;;
11076;SDS011;5591;42.626;23.380;2022-12-07T03:12:29;38.13;;;25.13;;
11076;SDS011;5591;42.626;23.380;2022-12-07T03:15:04;43.83;;;26.03;;
11076;SDS011;5591;42.626;23.380;2022-12-07T03:17:36;41.83;;;25.97;;
11076;SDS011;5591;42.626;23.380;2022-12-07T03:20:09;38.33;;;25.87;;
11076;SDS011;5591;42.626;23.380;2022-12-07T03:22:38;40.87;;;27.37;;
11076;SDS011;5591;42.626;23.380;2022-12-07T03:25:09;45.93;;;26.67;;
11076;SDS011;5591;42.626;23.380;2022-12-07T03:27:38;42.23;;;27.00;;
11076;SDS011;5591;42.626;23.380;2022-12-07T03:30:13;38.83;;;24.83;;
11076;SDS011;5591;42.626;23.380;2022-12-07T03:32:43;36.40;;;23.43;;
11076;SDS011;5591;42.626;23.380;2022-12-07T03:35:16;36.83;;;23.67;;
11076;SDS011;5591;42.626;23.380;2022-12-07T03:37:48;34.70;;;22.83;;
11076;SDS011;5591;42.626;23.380;2022-12-07T03:40:22;36.10;;;24.30;;
11076;SDS011;5591;42.626;23.380;2022-12-07T03:42:54;34.30;;;23.07;;
11076;SDS011;5591;42.626;23.380;2022-12-07T03:45:27;44.47;;;26.70;;
11076;SDS011;5591;42.626;23.380;2022-12-07T03:48:02;40.60;;;25.87;;
11076;SDS011;5591;42.626;23.380;2022-12-07T03:50:37;39.67;;;23.63;;
11076;SDS011;5591;42.626;23.380;2022-12-07T03:53:09;39.27;;;24.83;;
11076;SDS011;5591;42.626;23.380;2022-12-07T03:55:42;38.13;;;24.13;;
11076;SDS011;5591;42.626;23.380;2022-12-07T03:58:12;40.03;;;24.03;;
11076;SDS011;5591;42.626;23.380;2022-12-07T04:00:44;37.90;;;25.20;;
11076;SDS011;5591;42.626;23.380;2022-12-07T04:03:11;37.10;;;23.40;;
11076;SDS011;5591;42.626;23.380;2022-12-07T04:05:38;40.23;;;24.67;;
11076;SDS011;5591;42.626;23.380;2022-12-07T04:08:06;34.93;;;23.47;;
11076;SDS011;5591;42.626;23.380;2022-12-07T04:10:33;39.67;;;23.93;;
11076;SDS011;5591;42.626;23.380;2022-12-07T04:13:00;36.47;;;25.57;;
11076;SDS011;5591;42.626;23.380;2022-12-07T04:15:27;41.87;;;25.23;;
11076;SDS011;5591;42.626;23.380;2022-12-07T04:17:55;39.47;;;25.40;;
11076;SDS011;5591;42.626;23.380;2022-12-07T04:20:22;45.90;;;26.90;;
11076;SDS011;5591;42.626;23.380;2022-12-07T04:22:49;41.87;;;27.00;;
11076;SDS011;5591;42.626;23.380;2022-12-07T04:25:16;36.97;;;26.07;;
11076;SDS011;5591;42.626;23.380;2022-12-07T04:27:48;41.13;;;25.10;;
11076;SDS011;5591;42.626;23.380;2022-12-07T04:30:20;34.67;;;23.43;;
11076;SDS011;5591;42.626;23.380;2022-12-07T04:32:51;34.13;;;22.73;;
11076;SDS011;5591;42.626;23.380;2022-12-07T04:35:19;33.90;;;23.50;;
11076;SDS011;5591;42.626;23.380;2022-12-07T04:37:47;35.00;;;22.50;;
11076;SDS011;5591;42.626;23.380;2022-12-07T04:40:21;35.87;;;23.03;;
11076;SDS011;5591;42.626;23.380;2022-12-07T04:42:52;39.27;;;22.83;;
11076;SDS011;5591;42.626;23.380;2022-12-07T04:45:32;37.07;;;22.90;;
11076;SDS011;5591;42.626;23.380;2022-12-07T04:48:01;36.23;;;22.03;;
11076;SDS011;5591;42.626;23.380;2022-12-07T04:50:32;33.80;;;22.77;;
11076;SDS011;5591;42.626;23.380;2022-12-07T04:52:59;39.10;;;23.90;;
11076;SDS011;5591;42.626;23.380;2022-12-07T04:55:26;38.90;;;24.17;;
11076;SDS011;5591;42.626;23.380;2022-12-07T04:57:52;39.67;;;23.37;;
11076;SDS011;5591;42.626;23.380;2022-12-07T05:00:19;42.97;;;24.20;;
11076;SDS011;5591;42.626;23.380;2022-12-07T05:02:46;38.07;;;24.37;;
11076;SDS011;5591;42.626;23.380;2022-12-07T05:05:13;42.07;;;25.00;;
11076;SDS011;5591;42.626;23.380;2022-12-07T05:07:41;41.90;;;24.10;;
11076;SDS011;5591;42.626;23.380;2022-12-07T05:10:08;38.13;;;23.23;;
11076;SDS011;5591;42.626;23.380;2022-12-07T05:12:35;38.70;;;23.93;;
11076;SDS011;5591;42.626;23.380;2022-12-07T05:15:02;39.37;;;23.67;;
11076;SDS011;5591;42.626;23.380;2022-12-07T05:17:30;37.17;;;24.10;;
11076;SDS011;5591;42.626;23.380;2022-12-07T05:19:56;39.10;;;24.07;;
11076;SDS011;5591;42.626;23.380;2022-12-07T05:22:23;37.67;;;23.53;;
11076;SDS011;5591;42.626;23.380;2022-12-07T05:24:54;38.23;;;23.97;;
11076;SDS011;5591;42.626;23.380;2022-12-07T05:27:21;41.07;;;23.67;;
11076;SDS011;5591;42.626;23.380;2022-12-07T05:29:49;39.43;;;24.30;;
11076;SDS011;5591;42.626;23.380;2022-12-07T05:32:16;43.93;;;25.80;;
11076;SDS011;5591;42.626;23.380;2022-12-07T05:34:43;41.27;;;25.80;;
11076;SDS011;5591;42.626;23.380;2022-12-07T05:37:10;43.43;;;24.57;;
11076;SDS011;5591;42.626;23.380;2022-12-07T05:39:37;43.13;;;25.53;;
11076;SDS011;5591;42.626;23.380;2022-12-07T05:42:07;35.90;;;24.47;;
11076;SDS011;5591;42.626;23.380;2022-12-07T05:44:37;39.90;;;25.20;;
11076;SDS011;5591;42.626;23.380;2022-12-07T05:47:05;41.20;;;24.80;;
11076;SDS011;5591;42.626;23.380;2022-12-07T05:49:32;44.40;;;26.13;;
11076;SDS011;5591;42.626;23.380;2022-12-07T05:51:58;43.43;;;25.40;;
11076;SDS011;5591;42.626;23.380;2022-12-07T05:54:25;43.30;;;25.53;;
11076;SDS011;5591;42.626;23.380;2022-12-07T05:56:52;42.43;;;26.13;;
11076;SDS011;5591;42.626;23.380;2022-12-07T05:59:20;44.93;;;26.27;;
11076;SDS011;5591;42.626;23.380;2022-12-07T06:01:49;42.90;;;26.17;;
11076;SDS011;5591;42.626;23.380;2022-12-07T06:04:16;41.20;;;25.67;;
11076;SDS011;5591;42.626;23.380;2022-12-07T06:06:43;43.33;;;25.33;;
11076;SDS011;5591;42.626;23.380;2022-12-07T06:09:10;42.13;;;25.93;;
11076;SDS011;5591;42.626;23.380;2022-12-07T06:11:38;39.47;;;25.47;;
11076;SDS011;5591;42.626;23.380;2022-12-07T06:14:23;41.57;;;25.10;;
11076;SDS011;5591;42.626;23.380;2022-12-07T06:16:50;37.27;;;24.23;;
11076;SDS011;5591;42.626;23.380;2022-12-07T06:19:17;39.67;;;25.47;;
11076;SDS011;5591;42.626;23.380;2022-12-07T06:21:44;51.47;;;26.53;;
11076;SDS011;5591;42.626;23.380;2022-12-07T06:24:11;40.60;;;25.13;;
11076;SDS011;5591;42.626;23.380;2022-12-07T06:26:38;38.43;;;25.23;;
11076;SDS011;5591;42.626;23.380;2022-12-07T06:29:05;43.33;;;25.07;;
11076;SDS011;5591;42.626;23.380;2022-12-07T06:31:33;41.33;;;26.33;;
11076;SDS011;5591;42.626;23.380;2022-12-07T06:34:02;45.43;;;25.70;;
11076;SDS011;5591;42.626;23.380;2022-12-07T06:36:31;38.57;;;25.43;;
11076;SDS011;5591;42.626;23.380;2022-12-07T06:38:58;41.50;;;25.50;;
11076;SDS011;5591;42.626;23.380;2022-12-07T06:41:24;39.10;;;26.03;;
11076;SDS011;5591;42.626;23.380;2022-12-07T06:43:51;44.43;;;27.00;;
11076;SDS011;5591;42.626;23.380;2022-12-07T06:46:18;39.83;;;25.87;;
11076;SDS011;5591;42.626;23.380;2022-12-07T06:48:46;38.40;;;25.77;;
11076;SDS011;5591;42.626;23.380;2022-12-07T06:51:13;50.87;;;26.77;;
11076;SDS011;5591;42.626;23.380;2022-12-07T06:53:40;44.63;;;26.17;;
11076;SDS011;5591;42.626;23.380;2022-12-07T06:56:07;44.23;;;26.97;;
11076;SDS011;5591;42.626;23.380;2022-12-07T06:58:34;40.53;;;26.00;;
11076;SDS011;5591;42.626;23.380;2022-12-07T07:01:01;43.30;;;26.47;;
11076;SDS011;5591;42.626;23.380;2022-12-07T07:03:28;42.13;;;26.50;;
11076;SDS011;5591;42.626;23.380;2022-12-07T07:05:56;43.40;;;26.37;;
11076;SDS011;5591;42.626;23.380;2022-12-07T07:08:23;46.37;;;26.47;;
11076;SDS011;5591;42.626;23.380;2022-12-07T07:10:49;41.90;;;26.53;;
11076;SDS011;5591;42.626;23.380;2022-12-07T07:13:16;45.63;;;27.17;;
11076;SDS011;5591;42.626;23.380;2022-12-07T07:15:43;69.67;;;44.30;;
11076;SDS011;5591;42.626;23.380;2022-12-07T07:18:10;59.60;;;35.63;;
11076;SDS011;5591;42.626;23.380;2022-12-07T07:20:37;49.83;;;30.93;;
11076;SDS011;5591;42.626;23.380;2022-12-07T07:23:06;45.77;;;27.80;;
11076;SDS011;5591;42.626;23.380;2022-12-07T07:25:33;45.17;;;27.43;;
11076;SDS011;5591;42.626;23.380;2022-12-07T07:28:00;46.93;;;28.40;;
11076;SDS011;5591;42.626;23.380;2022-12-07T07:30:26;40.33;;;27.03;;
11076;SDS011;5591;42.626;23.380;2022-12-07T07:32:55;43.10;;;27.30;;
11076;SDS011;5591;42.626;23.380;2022-12-07T07:35:23;45.13;;;27.13;;
11076;SDS011;5591;42.626;23.380;2022-12-07T07:37:50;41.13;;;26.03;;
11076;SDS011;5591;42.626;23.380;2022-12-07T07:40:18;42.53;;;26.27;;
11076;SDS011;5591;42.626;23.380;2022-12-07T07:42:46;43.70;;;28.23;;
11076;SDS011;5591;42.626;23.380;2022-12-07T07:45:14;46.10;;;26.77;;
11076;SDS011;5591;42.626;23.380;2022-12-07T07:47:41;49.73;;;26.77;;
11076;SDS011;5591;42.626;23.380;2022-12-07T07:50:08;43.13;;;25.73;;
11076;SDS011;5591;42.626;23.380;2022-12-07T07:52:35;42.77;;;26.13;;
11076;SDS011;5591;42.626;23.380;2022-12-07T07:55:02;44.90;;;26.93;;
11076;SDS011;5591;42.626;23.380;2022-12-07T07:57:31;40.17;;;25.97;;
11076;SDS011;5591;42.626;23.380;2022-12-07T07:59:58;38.60;;;25.30;;
11076;SDS011;5591;42.626;23.380;2022-12-07T08:02:25;40.03;;;24.13;;
11076;SDS011;5591;42.626;23.380;2022-12-07T08:04:54;41.20;;;24.00;;
11076;SDS011;5591;42.626;23.380;2022-12-07T08:07:21;40.80;;;23.30;;
11076;SDS011;5591;42.626;23.380;2022-12-07T08:09:48;39.20;;;24.27;;
11076;SDS011;5591;42.626;23.380;2022-12-07T08:12:14;36.20;;;24.33;;
11076;SDS011;5591;42.626;23.380;2022-12-07T08:14:43;37.07;;;23.50;;
11076;SDS011;5591;42.626;23.380;2022-12-07T08:17:09;39.87;;;23.67;;
11076;SDS011;5591;42.626;23.380;2022-12-07T08:19:37;38.13;;;23.83;;
11076;SDS011;5591;42.626;23.380;2022-12-07T08:22:05;35.30;;;23.80;;
11076;SDS011;5591;42.626;23.380;2022-12-07T08:24:33;36.63;;;24.93;;
11076;SDS011;5591;42.626;23.380;2022-12-07T08:26:59;41.60;;;28.13;;
11076;SDS011;5591;42.626;23.380;2022-12-07T08:29:26;63.27;;;41.57;;
11076;SDS011;5591;42.626;23.380;2022-12-07T08:31:54;41.57;;;26.13;;
11076;SDS011;5591;42.626;23.380;2022-12-07T08:34:21;42.63;;;24.30;;
11076;SDS011;5591;42.626;23.380;2022-12-07T08:36:48;37.10;;;24.50;;
11076;SDS011;5591;42.626;23.380;2022-12-07T08:39:15;43.77;;;23.37;;
11076;SDS011;5591;42.626;23.380;2022-12-07T08:41:42;40.17;;;24.97;;
11076;SDS011;5591;42.626;23.380;2022-12-07T08:44:08;39.47;;;25.23;;
11076;SDS011;5591;42.626;23.380;2022-12-07T08:46:36;38.13;;;22.80;;
11076;SDS011;5591;42.626;23.380;2022-12-07T08:49:08;37.00;;;23.33;;
11076;SDS011;5591;42.626;23.380;2022-12-07T08:51:37;35.33;;;24.33;;
11076;SDS011;5591;42.626;23.380;2022-12-07T08:54:08;35.60;;;22.83;;
11076;SDS011;5591;42.626;23.380;2022-12-07T08:56:39;36.13;;;23.10;;
11076;SDS011;5591;42.626;23.380;2022-12-07T08:59:06;44.23;;;23.17;;
11076;SDS011;5591;42.626;23.380;2022-12-07T09:01:34;37.10;;;22.07;;
11076;SDS011;5591;42.626;23.380;2022-12-07T09:04:00;35.23;;;22.57;;
11076;SDS011;5591;42.626;23.380;2022-12-07T09:06:29;35.03;;;22.07;;
11076;SDS011;5591;42.626;23.380;2022-12-07T09:08:56;33.13;;;21.03;;
11076;SDS011;5591;42.626;23.380;2022-12-07T09:11:26;38.07;;;22.30;;
11076;SDS011;5591;42.626;23.380;2022-12-07T09:13:53;33.90;;;22.03;;
11076;SDS011;5591;42.626;23.380;2022-12-07T09:16:20;30.60;;;20.73;;
11076;SDS011;5591;42.626;23.380;2022-12-07T09:18:47;32.87;;;22.00;;
11076;SDS011;5591;42.626;23.380;2022-12-07T09:21:14;31.47;;;20.20;;
11076;SDS011;5591;42.626;23.380;2022-12-07T09:23:42;30.87;;;20.57;;
11076;SDS011;5591;42.626;23.380;2022-12-07T09:26:11;32.57;;;21.30;;
11076;SDS011;5591;42.626;23.380;2022-12-07T09:28:38;33.67;;;20.70;;
11076;SDS011;5591;42.626;23.380;2022-12-07T09:31:05;33.70;;;20.93;;
11076;SDS011;5591;42.626;23.380;2022-12-07T09:33:32;35.43;;;21.57;;
11076;SDS011;5591;42.626;23.380;2022-12-07T09:35:59;33.40;;;21.10;;
11076;SDS011;5591;42.626;23.380;2022-12-07T09:38:26;32.00;;;19.10;;
11076;SDS011;5591;42.626;23.380;2022-12-07T09:40:56;31.73;;;19.77;;
11076;SDS011;5591;42.626;23.380;2022-12-07T09:43:23;36.33;;;19.27;;
11076;SDS011;5591;42.626;23.380;2022-12-07T09:45:54;32.20;;;20.60;;
11076;SDS011;5591;42.626;23.380;2022-12-07T09:48:22;29.03;;;20.37;;
11076;SDS011;5591;42.626;23.380;2022-12-07T09:50:55;30.70;;;19.93;;
11076;SDS011;5591;42.626;23.380;2022-12-07T09:53:25;34.50;;;21.80;;
11076;SDS011;5591;42.626;23.380;2022-12-07T09:55:55;25.67;;;18.47;;
11076;SDS011;5591;42.626;23.380;2022-12-07T09:58:23;25.17;;;17.70;;
11076;SDS011;5591;42.626;23.380;2022-12-07T10:00:52;28.27;;;18.03;;
11076;SDS011;5591;42.626;23.380;2022-12-07T10:03:22;32.70;;;18.83;;
11076;SDS011;5591;42.626;23.380;2022-12-07T10:05:50;26.03;;;18.57;;
11076;SDS011;5591;42.626;23.380;2022-12-07T10:08:18;29.80;;;20.10;;
11076;SDS011;5591;42.626;23.380;2022-12-07T10:10:46;32.47;;;19.83;;
11076;SDS011;5591;42.626;23.380;2022-12-07T10:13:19;34.40;;;19.67;;
11076;SDS011;5591;42.626;23.380;2022-12-07T10:15:49;30.40;;;19.20;;
11076;SDS011;5591;42.626;23.380;2022-12-07T10:18:27;33.83;;;18.90;;
11076;SDS011;5591;42.626;23.380;2022-12-07T10:21:00;27.10;;;17.23;;
11076;SDS011;5591;42.626;23.380;2022-12-07T10:23:32;26.57;;;17.63;;
11076;SDS011;5591;42.626;23.380;2022-12-07T10:26:00;31.03;;;18.17;;
11076;SDS011;5591;42.626;23.380;2022-12-07T10:28:49;26.30;;;18.10;;
11076;SDS011;5591;42.626;23.380;2022-12-07T10:31:16;27.40;;;17.20;;
11076;SDS011;5591;42.626;23.380;2022-12-07T10:33:49;29.80;;;18.13;;
11076;SDS011;5591;42.626;23.380;2022-12-07T10:36:18;31.17;;;18.43;;
11076;SDS011;5591;42.626;23.380;2022-12-07T10:38:48;24.73;;;17.43;;
11076;SDS011;5591;42.626;23.380;2022-12-07T10:41:15;29.33;;;17.37;;
11076;SDS011;5591;42.626;23.380;2022-12-07T10:43:50;26.33;;;16.93;;
11076;SDS011;5591;42.626;23.380;2022-12-07T10:49:29;26.10;;;16.20;;
11076;SDS011;5591;42.626;23.380;2022-12-07T10:52:09;26.93;;;17.43;;
11076;SDS011;5591;42.626;23.380;2022-12-07T10:54:44;25.57;;;17.83;;
11076;SDS011;5591;42.626;23.380;2022-12-07T10:57:26;23.90;;;17.50;;
11076;SDS011;5591;42.626;23.380;2022-12-07T11:00:08;28.87;;;18.93;;
11076;SDS011;5591;42.626;23.380;2022-12-07T11:02:46;27.57;;;17.90;;
11076;SDS011;5591;42.626;23.380;2022-12-07T11:05:24;26.80;;;18.37;;
11076;SDS011;5591;42.626;23.380;2022-12-07T11:07:59;27.77;;;18.07;;
11076;SDS011;5591;42.626;23.380;2022-12-07T11:10:34;28.13;;;19.23;;
11076;SDS011;5591;42.626;23.380;2022-12-07T11:18:57;32.03;;;18.10;;
11076;SDS011;5591;42.626;23.380;2022-12-07T11:21:34;30.43;;;18.17;;
11076;SDS011;5591;42.626;23.380;2022-12-07T11:24:10;27.53;;;18.40;;
11076;SDS011;5591;42.626;23.380;2022-12-07T11:26:46;30.53;;;19.27;;
11076;SDS011;5591;42.626;23.380;2022-12-07T11:29:40;28.07;;;18.87;;
11076;SDS011;5591;42.626;23.380;2022-12-07T11:32:19;28.93;;;19.07;;
11076;SDS011;5591;42.626;23.380;2022-12-07T11:34:58;30.30;;;19.90;;
11076;SDS011;5591;42.626;23.380;2022-12-07T11:37:32;29.80;;;19.63;;
11076;SDS011;5591;42.626;23.380;2022-12-07T11:40:03;28.43;;;20.47;;
11076;SDS011;5591;42.626;23.380;2022-12-07T11:42:39;28.73;;;19.53;;
11076;SDS011;5591;42.626;23.380;2022-12-07T11:45:13;33.57;;;21.70;;
11076;SDS011;5591;42.626;23.380;2022-12-07T11:47:45;34.73;;;21.40;;
11076;SDS011;5591;42.626;23.380;2022-12-07T11:50:18;32.57;;;20.93;;
11076;SDS011;5591;42.626;23.380;2022-12-07T11:52:53;34.17;;;20.80;;
11076;SDS011;5591;42.626;23.380;2022-12-07T11:55:24;34.57;;;20.77;;
11076;SDS011;5591;42.626;23.380;2022-12-07T11:57:58;32.73;;;19.93;;
11076;SDS011;5591;42.626;23.380;2022-12-07T12:00:30;33.37;;;20.13;;
11076;SDS011;5591;42.626;23.380;2022-12-07T12:03:01;33.27;;;21.10;;
11076;SDS011;5591;42.626;23.380;2022-12-07T12:05:35;34.10;;;19.67;;
11076;SDS011;5591;42.626;23.380;2022-12-07T12:08:04;33.20;;;20.03;;
11076;SDS011;5591;42.626;23.380;2022-12-07T12:10:41;27.00;;;18.20;;
11076;SDS011;5591;42.626;23.380;2022-12-07T12:13:28;28.33;;;17.77;;
11076;SDS011;5591;42.626;23.380;2022-12-07T12:16:22;22.37;;;16.80;;
11076;SDS011;5591;42.626;23.380;2022-12-07T12:19:14;25.93;;;17.37;;
11076;SDS011;5591;42.626;23.380;2022-12-07T12:22:04;24.33;;;17.47;;
11076;SDS011;5591;42.626;23.380;2022-12-07T12:24:38;27.43;;;18.33;;
11076;SDS011;5591;42.626;23.380;2022-12-07T12:27:07;30.23;;;18.40;;
11076;SDS011;5591;42.626;23.380;2022-12-07T12:29:37;34.93;;;19.20;;
11076;SDS011;5591;42.626;23.380;2022-12-07T12:32:16;30.50;;;18.00;;
11076;SDS011;5591;42.626;23.380;2022-12-07T12:35:01;31.37;;;17.47;;
11076;SDS011;5591;42.626;23.380;2022-12-07T12:37:45;29.83;;;17.20;;
11076;SDS011;5591;42.626;23.380;2022-12-07T12:55:16;26.90;;;16.37;;
11076;SDS011;5591;42.626;23.380;2022-12-07T13:04:13;31.30;;;16.93;;
11076;SDS011;5591;42.626;23.380;2022-12-07T13:06:44;28.70;;;16.77;;
11076;SDS011;5591;42.626;23.380;2022-12-07T13:09:19;31.53;;;18.00;;
11076;SDS011;5591;42.626;23.380;2022-12-07T13:11:54;26.53;;;17.50;;
11076;SDS011;5591;42.626;23.380;2022-12-07T13:14:43;27.47;;;17.17;;
11076;SDS011;5591;42.626;23.380;2022-12-07T13:23:10;28.33;;;16.40;;
11076;SDS011;5591;42.626;23.380;2022-12-07T13:25:37;20.33;;;15.07;;
11076;SDS011;5591;42.626;23.380;2022-12-07T13:28:15;28.70;;;14.90;;
11076;SDS011;5591;42.626;23.380;2022-12-07T13:30:50;23.50;;;14.70;;
11076;SDS011;5591;42.626;23.380;2022-12-07T13:33:27;25.47;;;14.17;;
11076;SDS011;5591;42.626;23.380;2022-12-07T13:35:55;22.53;;;12.77;;
11076;SDS011;5591;42.626;23.380;2022-12-07T13:38:26;20.23;;;13.70;;
11076;SDS011;5591;42.626;23.380;2022-12-07T13:41:05;21.93;;;13.50;;
11076;SDS011;5591;42.626;23.380;2022-12-07T13:43:47;19.70;;;13.57;;
11076;SDS011;5591;42.626;23.380;2022-12-07T13:46:17;21.90;;;14.27;;
11076;SDS011;5591;42.626;23.380;2022-12-07T13:48:45;23.37;;;14.70;;
11076;SDS011;5591;42.626;23.380;2022-12-07T13:51:17;22.20;;;15.13;;
11076;SDS011;5591;42.626;23.380;2022-12-07T13:53:46;25.53;;;15.23;;
11076;SDS011;5591;42.626;23.380;2022-12-07T13:56:14;26.00;;;15.47;;
11076;SDS011;5591;42.626;23.380;2022-12-07T13:58:42;27.50;;;15.23;;
11076;SDS011;5591;42.626;23.380;2022-12-07T14:01:11;29.00;;;16.13;;
11076;SDS011;5591;42.626;23.380;2022-12-07T14:03:38;27.90;;;15.70;;
11076;SDS011;5591;42.626;23.380;2022-12-07T14:09:16;34.43;;;17.30;;
11076;SDS011;5591;42.626;23.380;2022-12-07T14:11:45;34.47;;;17.83;;
11076;SDS011;5591;42.626;23.380;2022-12-07T14:14:13;62.03;;;26.17;;
11076;SDS011;5591;42.626;23.380;2022-12-07T14:16:54;40.83;;;19.93;;
11076;SDS011;5591;42.626;23.380;2022-12-07T14:19:40;27.03;;;15.67;;
11076;SDS011;5591;42.626;23.380;2022-12-07T14:22:15;27.00;;;15.27;;
11076;SDS011;5591;42.626;23.380;2022-12-07T14:24:46;36.37;;;17.33;;
11076;SDS011;5591;42.626;23.380;2022-12-07T14:27:17;29.77;;;14.90;;
11076;SDS011;5591;42.626;23.380;2022-12-07T14:29:45;28.03;;;15.50;;
11076;SDS011;5591;42.626;23.380;2022-12-07T14:32:23;32.93;;;16.90;;
11076;SDS011;5591;42.626;23.380;2022-12-07T14:34:58;33.03;;;17.57;;
11076;SDS011;5591;42.626;23.380;2022-12-07T14:37:27;31.50;;;16.53;;
11076;SDS011;5591;42.626;23.380;2022-12-07T14:39:55;31.23;;;15.60;;
11076;SDS011;5591;42.626;23.380;2022-12-07T14:42:23;27.83;;;16.30;;
11076;SDS011;5591;42.626;23.380;2022-12-07T14:44:53;29.67;;;16.23;;
11076;SDS011;5591;42.626;23.380;2022-12-07T14:47:20;27.03;;;16.03;;
11076;SDS011;5591;42.626;23.380;2022-12-07T14:49:48;40.33;;;17.20;;
11076;SDS011;5591;42.626;23.380;2022-12-07T14:52:15;36.10;;;16.60;;
11076;SDS011;5591;42.626;23.380;2022-12-07T14:54:44;30.60;;;15.83;;
11076;SDS011;5591;42.626;23.380;2022-12-07T14:57:11;24.27;;;15.13;;
11076;SDS011;5591;42.626;23.380;2022-12-07T14:59:38;32.87;;;16.97;;
11076;SDS011;5591;42.626;23.380;2022-12-07T15:02:05;33.47;;;17.40;;
11076;SDS011;5591;42.626;23.380;2022-12-07T15:04:32;36.30;;;17.50;;
11076;SDS011;5591;42.626;23.380;2022-12-07T15:07:01;33.83;;;19.37;;
11076;SDS011;5591;42.626;23.380;2022-12-07T15:09:29;35.60;;;19.27;;
11076;SDS011;5591;42.626;23.380;2022-12-07T15:11:56;38.57;;;21.23;;
11076;SDS011;5591;42.626;23.380;2022-12-07T15:14:23;48.40;;;19.70;;
11076;SDS011;5591;42.626;23.380;2022-12-07T15:16:50;45.67;;;20.47;;
11076;SDS011;5591;42.626;23.380;2022-12-07T15:19:17;43.10;;;19.63;;
11076;SDS011;5591;42.626;23.380;2022-12-07T15:21:47;44.93;;;20.27;;
11076;SDS011;5591;42.626;23.380;2022-12-07T15:24:16;34.80;;;19.37;;
11076;SDS011;5591;42.626;23.380;2022-12-07T15:26:42;42.30;;;19.43;;